<?xml version="1.0" encoding="UTF-8" standalone="no" ?>
<gpx xmlns="http://www.topografix.com/GPX/1/1" creator="MapSource 6.16.3" version="1.1" xmlns:xsi="http://www.w3.org/2001/XMLSchema-instance" xsi:schemaLocation="http://www.topografix.com/GPX/1/1 http://www.topografix.com/GPX/1/1/gpx.xsd">

  <metadata>
    <link href="http://www.garmin.com">
      <text>Garmin International</text>
    </link>
    <time>2015-07-08T06:03:19Z</time>
    <bounds maxlat="54.678684258833528" maxlon="17.465064860880375" minlat="54.575340924784541" minlon="16.873789150267839"/>
  </metadata>

  <trk>
    <name>ACTIVE LOG 013</name>
    <extensions>
      <gpxx:TrackExtension xmlns:gpxx="http://www.garmin.com/xmlschemas/GpxExtensions/v3">
        <gpxx:DisplayColor>Green</gpxx:DisplayColor>
      </gpxx:TrackExtension>
    </extensions>
    <trkseg>
      <trkpt lat="54.577995892614126" lon="16.876313192769885">
        <ele>-18.6083984375</ele>
        <time>2015-07-02T07:05:22Z</time>
      </trkpt>
      <trkpt lat="54.577865386381745" lon="16.875861408188939">
        <ele>-0.8240966796875</ele>
        <time>2015-07-02T07:05:35Z</time>
      </trkpt>
      <trkpt lat="54.577770922333002" lon="16.875592852011323">
        <ele>2.06005859375</ele>
        <time>2015-07-02T07:05:42Z</time>
      </trkpt>
      <trkpt lat="54.57769900560379" lon="16.87563132494688">
        <ele>4.94384765625</ele>
        <time>2015-07-02T07:05:46Z</time>
      </trkpt>
      <trkpt lat="54.576972210779786" lon="16.87636524438858">
        <ele>7.34716796875</ele>
        <time>2015-07-02T07:06:21Z</time>
      </trkpt>
      <trkpt lat="54.576994674280286" lon="16.876331465318799">
        <ele>5.424560546875</ele>
        <time>2015-07-02T07:07:20Z</time>
      </trkpt>
      <trkpt lat="54.576798370108008" lon="16.876481333747506">
        <ele>5.424560546875</ele>
        <time>2015-07-02T07:07:25Z</time>
      </trkpt>
      <trkpt lat="54.5766640920192" lon="16.876254770904779">
        <ele>2.5406494140625</ele>
        <time>2015-07-02T07:07:30Z</time>
      </trkpt>
      <trkpt lat="54.576214151456952" lon="16.874797325581312">
        <ele>2.5406494140625</ele>
        <time>2015-07-02T07:07:57Z</time>
      </trkpt>
      <trkpt lat="54.57578114233911" lon="16.873789150267839">
        <ele>2.06005859375</ele>
        <time>2015-07-02T07:08:28Z</time>
      </trkpt>
      <trkpt lat="54.57588030025363" lon="16.87463840469718">
        <ele>13.1151123046875</ele>
        <time>2015-07-02T07:10:20Z</time>
      </trkpt>
      <trkpt lat="54.576731398701668" lon="16.876453338190913">
        <ele>12.15380859375</ele>
        <time>2015-07-02T07:10:56Z</time>
      </trkpt>
      <trkpt lat="54.576623355969787" lon="16.876712003722787">
        <ele>10.7117919921875</ele>
        <time>2015-07-02T07:11:03Z</time>
      </trkpt>
      <trkpt lat="54.576285062357783" lon="16.877011070027947">
        <ele>7.827880859375</ele>
        <time>2015-07-02T07:11:14Z</time>
      </trkpt>
      <trkpt lat="54.575987756252289" lon="16.877342825755477">
        <ele>7.827880859375</ele>
        <time>2015-07-02T07:11:25Z</time>
      </trkpt>
      <trkpt lat="54.575895890593529" lon="16.877366462722421">
        <ele>6.866455078125</ele>
        <time>2015-07-02T07:11:30Z</time>
      </trkpt>
      <trkpt lat="54.575340924784541" lon="16.878042630851269">
        <ele>7.827880859375</ele>
        <time>2015-07-02T07:12:17Z</time>
      </trkpt>
      <trkpt lat="54.575360706076026" lon="16.878070458769798">
        <ele>7.827880859375</ele>
        <time>2015-07-02T07:12:38Z</time>
      </trkpt>
      <trkpt lat="54.575721127912402" lon="16.878979224711657">
        <ele>5.424560546875</ele>
        <time>2015-07-02T07:12:55Z</time>
      </trkpt>
      <trkpt lat="54.577883910387754" lon="16.883198088034987">
        <ele>2.06005859375</ele>
        <time>2015-07-02T07:14:21Z</time>
      </trkpt>
      <trkpt lat="54.578310213983059" lon="16.88403032720089">
        <ele>3.021240234375</ele>
        <time>2015-07-02T07:14:38Z</time>
      </trkpt>
      <trkpt lat="54.578557228669524" lon="16.884198887273669">
        <ele>3.021240234375</ele>
        <time>2015-07-02T07:14:46Z</time>
      </trkpt>
      <trkpt lat="54.578619841486216" lon="16.884282371029258">
        <ele>3.021240234375</ele>
        <time>2015-07-02T07:14:48Z</time>
      </trkpt>
      <trkpt lat="54.57921520806849" lon="16.885286523029208">
        <ele>4.94384765625</ele>
        <time>2015-07-02T07:15:08Z</time>
      </trkpt>
      <trkpt lat="54.583085468038917" lon="16.892403932288289">
        <ele>6.866455078125</ele>
        <time>2015-07-02T07:17:38Z</time>
      </trkpt>
      <trkpt lat="54.585461402311921" lon="16.896822117269039">
        <ele>8.7891845703125</ele>
        <time>2015-07-02T07:19:20Z</time>
      </trkpt>
      <trkpt lat="54.585486715659499" lon="16.898285262286663">
        <ele>8.30859375</ele>
        <time>2015-07-02T07:19:40Z</time>
      </trkpt>
      <trkpt lat="54.585639350116253" lon="16.905002016574144">
        <ele>5.9052734375</ele>
        <time>2015-07-02T07:21:18Z</time>
      </trkpt>
      <trkpt lat="54.585859375074506" lon="16.906193923205137">
        <ele>6.3858642578125</ele>
        <time>2015-07-02T07:21:38Z</time>
      </trkpt>
      <trkpt lat="54.586699157953262" lon="16.910138782113791">
        <ele>5.9052734375</ele>
        <time>2015-07-02T07:23:04Z</time>
      </trkpt>
      <trkpt lat="54.587671877816319" lon="16.914639361202717">
        <ele>7.34716796875</ele>
        <time>2015-07-02T07:23:56Z</time>
      </trkpt>
      <trkpt lat="54.588418453931808" lon="16.916743218898773">
        <ele>6.866455078125</ele>
        <time>2015-07-02T07:24:25Z</time>
      </trkpt>
      <trkpt lat="54.588707378134131" lon="16.916986210271716">
        <ele>7.34716796875</ele>
        <time>2015-07-02T07:24:31Z</time>
      </trkpt>
      <trkpt lat="54.588930085301399" lon="16.917038513347507">
        <ele>7.34716796875</ele>
        <time>2015-07-02T07:24:35Z</time>
      </trkpt>
      <trkpt lat="54.590153424069285" lon="16.916952598839998">
        <ele>6.3858642578125</ele>
        <time>2015-07-02T07:25:00Z</time>
      </trkpt>
      <trkpt lat="54.59273898974061" lon="16.917030801996589">
        <ele>6.3858642578125</ele>
        <time>2015-07-02T07:25:56Z</time>
      </trkpt>
      <trkpt lat="54.597447020933032" lon="16.920052226632833">
        <ele>6.3858642578125</ele>
        <time>2015-07-02T07:27:16Z</time>
      </trkpt>
      <trkpt lat="54.597408464178443" lon="16.920115845277905">
        <ele>8.30859375</ele>
        <time>2015-07-02T07:27:34Z</time>
      </trkpt>
      <trkpt lat="54.59737703204155" lon="16.920140655711293">
        <ele>10.7117919921875</ele>
        <time>2015-07-02T07:28:33Z</time>
      </trkpt>
      <trkpt lat="54.597405279055238" lon="16.920088604092598">
        <ele>8.30859375</ele>
        <time>2015-07-02T07:29:17Z</time>
      </trkpt>
      <trkpt lat="54.597748098894954" lon="16.920370319858193">
        <ele>8.30859375</ele>
        <time>2015-07-02T07:29:26Z</time>
      </trkpt>
      <trkpt lat="54.597764778882265" lon="16.920400578528643">
        <ele>8.30859375</ele>
        <time>2015-07-02T07:29:27Z</time>
      </trkpt>
      <trkpt lat="54.598557790741324" lon="16.920097405090928">
        <ele>8.30859375</ele>
        <time>2015-07-02T07:29:33Z</time>
      </trkpt>
      <trkpt lat="54.598726266995072" lon="16.919973269104958">
        <ele>8.7891845703125</ele>
        <time>2015-07-02T07:29:41Z</time>
      </trkpt>
      <trkpt lat="54.598983423784375" lon="16.919635813683271">
        <ele>5.9052734375</ele>
        <time>2015-07-02T07:29:56Z</time>
      </trkpt>
      <trkpt lat="54.598840596154332" lon="16.919523412361741">
        <ele>5.9052734375</ele>
        <time>2015-07-02T07:30:06Z</time>
      </trkpt>
      <trkpt lat="54.59885367192328" lon="16.91914270631969">
        <ele>7.827880859375</ele>
        <time>2015-07-02T07:30:17Z</time>
      </trkpt>
      <trkpt lat="54.598813857883215" lon="16.917869327589869">
        <ele>9.2698974609375</ele>
        <time>2015-07-02T07:30:57Z</time>
      </trkpt>
      <trkpt lat="54.599025752395391" lon="16.917643435299397">
        <ele>8.7891845703125</ele>
        <time>2015-07-02T07:32:11Z</time>
      </trkpt>
      <trkpt lat="54.599136896431446" lon="16.917803362011909">
        <ele>8.30859375</ele>
        <time>2015-07-02T07:32:32Z</time>
      </trkpt>
      <trkpt lat="54.599449457600713" lon="16.917409747838974">
        <ele>7.34716796875</ele>
        <time>2015-07-02T07:32:42Z</time>
      </trkpt>
      <trkpt lat="54.599440153688192" lon="16.917394157499075">
        <ele>9.2698974609375</ele>
        <time>2015-07-02T07:32:57Z</time>
      </trkpt>
      <trkpt lat="54.599408973008394" lon="16.917440593242645">
        <ele>6.3858642578125</ele>
        <time>2015-07-02T07:35:32Z</time>
      </trkpt>
      <trkpt lat="54.599465047940612" lon="16.917785005643964">
        <ele>5.9052734375</ele>
        <time>2015-07-02T07:35:56Z</time>
      </trkpt>
      <trkpt lat="54.598326617851853" lon="16.920533180236816">
        <ele>3.982666015625</ele>
        <time>2015-07-02T07:37:24Z</time>
      </trkpt>
      <trkpt lat="54.598477827385068" lon="16.921363575384021">
        <ele>4.94384765625</ele>
        <time>2015-07-02T07:37:51Z</time>
      </trkpt>
      <trkpt lat="54.598690811544657" lon="16.922481553629041">
        <ele>5.424560546875</ele>
        <time>2015-07-02T07:38:14Z</time>
      </trkpt>
      <trkpt lat="54.599266061559319" lon="16.9272998906672">
        <ele>1.579345703125</ele>
        <time>2015-07-02T07:40:18Z</time>
      </trkpt>
      <trkpt lat="54.599556410685182" lon="16.928179487586021">
        <ele>2.5406494140625</ele>
        <time>2015-07-02T07:40:40Z</time>
      </trkpt>
      <trkpt lat="54.599609132856131" lon="16.929896185174584">
        <ele>2.5406494140625</ele>
        <time>2015-07-02T07:41:10Z</time>
      </trkpt>
      <trkpt lat="54.599571581929922" lon="16.930180499330163">
        <ele>1.579345703125</ele>
        <time>2015-07-02T07:41:14Z</time>
      </trkpt>
      <trkpt lat="54.599078809842467" lon="16.932755755260587">
        <ele>-4.1885986328125</ele>
        <time>2015-07-02T07:41:51Z</time>
      </trkpt>
      <trkpt lat="54.598932294175029" lon="16.933497888967395">
        <ele>-4.1885986328125</ele>
        <time>2015-07-02T07:42:02Z</time>
      </trkpt>
      <trkpt lat="54.59905257448554" lon="16.937252227216959">
        <ele>-2.7467041015625</ele>
        <time>2015-07-02T07:42:56Z</time>
      </trkpt>
      <trkpt lat="54.599196240305901" lon="16.942250020802021">
        <ele>-0.8240966796875</ele>
        <time>2015-07-02T07:44:14Z</time>
      </trkpt>
      <trkpt lat="54.599593207240105" lon="16.942449929192662">
        <ele>1.0986328125</ele>
        <time>2015-07-02T07:44:29Z</time>
      </trkpt>
      <trkpt lat="54.600371466949582" lon="16.942740613594651">
        <ele>0.6180419921875</ele>
        <time>2015-07-02T07:44:50Z</time>
      </trkpt>
      <trkpt lat="54.60115953348577" lon="16.943250820040703">
        <ele>1.0986328125</ele>
        <time>2015-07-02T07:45:10Z</time>
      </trkpt>
      <trkpt lat="54.60124159231782" lon="16.943320222198963">
        <ele>-0.8240966796875</ele>
        <time>2015-07-02T07:45:12Z</time>
      </trkpt>
      <trkpt lat="54.605188379064202" lon="16.948673240840435">
        <ele>-2.2659912109375</ele>
        <time>2015-07-02T07:47:27Z</time>
      </trkpt>
      <trkpt lat="54.605840742588043" lon="16.949642021209002">
        <ele>0.137451171875</ele>
        <time>2015-07-02T07:47:50Z</time>
      </trkpt>
      <trkpt lat="54.606037214398384" lon="16.950504602864385">
        <ele>6.3858642578125</ele>
        <time>2015-07-02T07:48:05Z</time>
      </trkpt>
      <trkpt lat="54.606282217428088" lon="16.950585236772895">
        <ele>5.9052734375</ele>
        <time>2015-07-02T07:48:13Z</time>
      </trkpt>
      <trkpt lat="54.606478102505207" lon="16.950632091611624">
        <ele>5.9052734375</ele>
        <time>2015-07-02T07:48:22Z</time>
      </trkpt>
      <trkpt lat="54.6118731983006" lon="16.961337542161345">
        <ele>13.5958251953125</ele>
        <time>2015-07-02T07:52:26Z</time>
      </trkpt>
      <trkpt lat="54.61158050224185" lon="16.963033955544233">
        <ele>21.7669677734375</ele>
        <time>2015-07-02T07:53:10Z</time>
      </trkpt>
      <trkpt lat="54.611481931060553" lon="16.96307921782136">
        <ele>18.883056640625</ele>
        <time>2015-07-02T07:53:57Z</time>
      </trkpt>
      <trkpt lat="54.611392328515649" lon="16.963733341544867">
        <ele>26.0928955078125</ele>
        <time>2015-07-02T07:54:09Z</time>
      </trkpt>
      <trkpt lat="54.611352849751711" lon="16.967067830264568">
        <ele>29.45751953125</ele>
        <time>2015-07-02T07:55:07Z</time>
      </trkpt>
      <trkpt lat="54.61126827634871" lon="16.967352563515306">
        <ele>27.0543212890625</ele>
        <time>2015-07-02T07:55:14Z</time>
      </trkpt>
      <trkpt lat="54.611442871391773" lon="16.968410862609744">
        <ele>27.534912109375</ele>
        <time>2015-07-02T07:55:39Z</time>
      </trkpt>
      <trkpt lat="54.612674927338958" lon="16.975359125062823">
        <ele>27.534912109375</ele>
        <time>2015-07-02T07:57:53Z</time>
      </trkpt>
      <trkpt lat="54.612682890146971" lon="16.975408243015409">
        <ele>28.0155029296875</ele>
        <time>2015-07-02T07:57:55Z</time>
      </trkpt>
      <trkpt lat="54.612692026421428" lon="16.97552508674562">
        <ele>29.45751953125</ele>
        <time>2015-07-02T07:57:59Z</time>
      </trkpt>
      <trkpt lat="54.613097039982677" lon="16.976246098056436">
        <ele>32.341552734375</ele>
        <time>2015-07-02T07:58:20Z</time>
      </trkpt>
      <trkpt lat="54.61514507420361" lon="16.977976206690073">
        <ele>24.6510009765625</ele>
        <time>2015-07-02T07:59:33Z</time>
      </trkpt>
      <trkpt lat="54.616001453250647" lon="16.978849601000547">
        <ele>23.6895751953125</ele>
        <time>2015-07-02T08:00:01Z</time>
      </trkpt>
      <trkpt lat="54.620609320700169" lon="16.980592953041196">
        <ele>23.208984375</ele>
        <time>2015-07-02T08:02:39Z</time>
      </trkpt>
      <trkpt lat="54.621255230158567" lon="16.980617009103298">
        <ele>26.0928955078125</ele>
        <time>2015-07-02T08:03:01Z</time>
      </trkpt>
      <trkpt lat="54.621567288413644" lon="16.980672413483262">
        <ele>31.8607177734375</ele>
        <time>2015-07-02T08:03:37Z</time>
      </trkpt>
      <trkpt lat="54.622060479596257" lon="16.980808787047863">
        <ele>31.8607177734375</ele>
        <time>2015-07-02T08:03:58Z</time>
      </trkpt>
      <trkpt lat="54.623538628220558" lon="16.983711188659072">
        <ele>37.1480712890625</ele>
        <time>2015-07-02T08:05:23Z</time>
      </trkpt>
      <trkpt lat="54.624187303707004" lon="16.985230073332787">
        <ele>32.822265625</ele>
        <time>2015-07-02T08:05:43Z</time>
      </trkpt>
      <trkpt lat="54.624420404434204" lon="16.985617652535439">
        <ele>43.8773193359375</ele>
        <time>2015-07-02T08:06:26Z</time>
      </trkpt>
      <trkpt lat="54.62348934262991" lon="16.989268809556961">
        <ele>30.4188232421875</ele>
        <time>2015-07-02T08:08:44Z</time>
      </trkpt>
      <trkpt lat="54.620006158947945" lon="17.001465316861868">
        <ele>39.55126953125</ele>
        <time>2015-07-02T08:11:43Z</time>
      </trkpt>
      <trkpt lat="54.619477344676852" lon="17.003986677154899">
        <ele>39.55126953125</ele>
        <time>2015-07-02T08:12:16Z</time>
      </trkpt>
      <trkpt lat="54.613740937784314" lon="17.010484747588634">
        <ele>41.4739990234375</ele>
        <time>2015-07-02T08:14:52Z</time>
      </trkpt>
      <trkpt lat="54.61367036215961" lon="17.01054023578763">
        <ele>41.4739990234375</ele>
        <time>2015-07-02T08:14:54Z</time>
      </trkpt>
      <trkpt lat="54.613505825400352" lon="17.01065699569881">
        <ele>41.4739990234375</ele>
        <time>2015-07-02T08:15:00Z</time>
      </trkpt>
      <trkpt lat="54.612317774444818" lon="17.011140128597617">
        <ele>41.4739990234375</ele>
        <time>2015-07-02T08:15:37Z</time>
      </trkpt>
      <trkpt lat="54.609540682286024" lon="17.012150986120105">
        <ele>41.9547119140625</ele>
        <time>2015-07-02T08:16:40Z</time>
      </trkpt>
      <trkpt lat="54.608685728162527" lon="17.012122990563512">
        <ele>41.9547119140625</ele>
        <time>2015-07-02T08:17:06Z</time>
      </trkpt>
    </trkseg>
  </trk>

  <trk>
    <name>ACTIVE LOG 014</name>
    <extensions>
      <gpxx:TrackExtension xmlns:gpxx="http://www.garmin.com/xmlschemas/GpxExtensions/v3">
        <gpxx:DisplayColor>Green</gpxx:DisplayColor>
      </gpxx:TrackExtension>
    </extensions>
    <trkseg>
      <trkpt lat="54.60732844658196" lon="17.013860307633877">
        <ele>49.16455078125</ele>
        <time>2015-07-02T08:21:10Z</time>
      </trkpt>
      <trkpt lat="54.60728938691318" lon="17.013930128887296">
        <ele>49.16455078125</ele>
        <time>2015-07-02T08:21:12Z</time>
      </trkpt>
      <trkpt lat="54.607284022495151" lon="17.014015708118677">
        <ele>49.16455078125</ele>
        <time>2015-07-02T08:21:16Z</time>
      </trkpt>
      <trkpt lat="54.603644600138068" lon="17.012615595012903">
        <ele>52.5291748046875</ele>
        <time>2015-07-02T08:22:51Z</time>
      </trkpt>
      <trkpt lat="54.601689940318465" lon="17.012502690777183">
        <ele>45.7999267578125</ele>
        <time>2015-07-02T08:23:10Z</time>
      </trkpt>
      <trkpt lat="54.600394181907177" lon="17.012447956949472">
        <ele>41.4739990234375</ele>
        <time>2015-07-02T08:23:30Z</time>
      </trkpt>
      <trkpt lat="54.600154794752598" lon="17.012492632493377">
        <ele>40.0321044921875</ele>
        <time>2015-07-02T08:23:35Z</time>
      </trkpt>
      <trkpt lat="54.600096875801682" lon="17.012685164809227">
        <ele>39.55126953125</ele>
        <time>2015-07-02T08:23:39Z</time>
      </trkpt>
      <trkpt lat="54.600243307650089" lon="17.01379400677979">
        <ele>38.590087890625</ele>
        <time>2015-07-02T08:23:57Z</time>
      </trkpt>
      <trkpt lat="54.602226130664349" lon="17.022103825584054">
        <ele>33.783447265625</ele>
        <time>2015-07-02T08:25:09Z</time>
      </trkpt>
      <trkpt lat="54.602786125615239" lon="17.023816164582968">
        <ele>24.1702880859375</ele>
        <time>2015-07-02T08:25:26Z</time>
      </trkpt>
      <trkpt lat="54.60310329683125" lon="17.028342559933662">
        <ele>17.441162109375</ele>
        <time>2015-07-02T08:26:13Z</time>
      </trkpt>
      <trkpt lat="54.602867094799876" lon="17.030048025771976">
        <ele>14.5570068359375</ele>
        <time>2015-07-02T08:26:39Z</time>
      </trkpt>
      <trkpt lat="54.602099731564522" lon="17.034880360588431">
        <ele>14.076416015625</ele>
        <time>2015-07-02T08:27:50Z</time>
      </trkpt>
      <trkpt lat="54.601896889507771" lon="17.036351384595037">
        <ele>15.0377197265625</ele>
        <time>2015-07-02T08:28:13Z</time>
      </trkpt>
      <trkpt lat="54.602276673540473" lon="17.037355620414019">
        <ele>15.5184326171875</ele>
        <time>2015-07-02T08:28:29Z</time>
      </trkpt>
      <trkpt lat="54.603183511644602" lon="17.039331570267677">
        <ele>15.5184326171875</ele>
        <time>2015-07-02T08:29:02Z</time>
      </trkpt>
      <trkpt lat="54.604669539257884" lon="17.040865123271942">
        <ele>16.479736328125</ele>
        <time>2015-07-02T08:29:44Z</time>
      </trkpt>
      <trkpt lat="54.604793172329664" lon="17.041179444640875">
        <ele>15.9990234375</ele>
        <time>2015-07-02T08:29:49Z</time>
      </trkpt>
      <trkpt lat="54.604984866455197" lon="17.041604910045862">
        <ele>15.9990234375</ele>
        <time>2015-07-02T08:29:56Z</time>
      </trkpt>
      <trkpt lat="54.605116797611117" lon="17.041826108470559">
        <ele>16.96044921875</ele>
        <time>2015-07-02T08:30:00Z</time>
      </trkpt>
      <trkpt lat="54.605911318212748" lon="17.04261233098805">
        <ele>17.441162109375</ele>
        <time>2015-07-02T08:30:20Z</time>
      </trkpt>
      <trkpt lat="54.606818072497845" lon="17.044119397178292">
        <ele>18.40234375</ele>
        <time>2015-07-02T08:31:12Z</time>
      </trkpt>
      <trkpt lat="54.606801811605692" lon="17.04410120844841">
        <ele>18.40234375</ele>
        <time>2015-07-02T08:31:19Z</time>
      </trkpt>
      <trkpt lat="54.606707096099854" lon="17.044005738571286">
        <ele>15.9990234375</ele>
        <time>2015-07-02T08:31:34Z</time>
      </trkpt>
      <trkpt lat="54.606378525495529" lon="17.043541381135583">
        <ele>22.728271484375</ele>
        <time>2015-07-02T08:34:18Z</time>
      </trkpt>
      <trkpt lat="54.606586899608374" lon="17.043299814686179">
        <ele>21.7669677734375</ele>
        <time>2015-07-02T08:34:27Z</time>
      </trkpt>
      <trkpt lat="54.607016891241074" lon="17.042430946603417">
        <ele>18.40234375</ele>
        <time>2015-07-02T08:34:44Z</time>
      </trkpt>
      <trkpt lat="54.607590213418007" lon="17.041280530393124">
        <ele>18.40234375</ele>
        <time>2015-07-02T08:35:08Z</time>
      </trkpt>
      <trkpt lat="54.609035756438971" lon="17.039908496662974">
        <ele>17.441162109375</ele>
        <time>2015-07-02T08:35:58Z</time>
      </trkpt>
      <trkpt lat="54.611127376556396" lon="17.037542117759585">
        <ele>17.441162109375</ele>
        <time>2015-07-02T08:36:45Z</time>
      </trkpt>
      <trkpt lat="54.614246282726526" lon="17.033947454765439">
        <ele>15.0377197265625</ele>
        <time>2015-07-02T08:37:56Z</time>
      </trkpt>
      <trkpt lat="54.614838631823659" lon="17.03306551091373">
        <ele>13.1151123046875</ele>
        <time>2015-07-02T08:38:08Z</time>
      </trkpt>
      <trkpt lat="54.615111211314797" lon="17.032984877005219">
        <ele>11.1925048828125</ele>
        <time>2015-07-02T08:38:12Z</time>
      </trkpt>
      <trkpt lat="54.615322183817625" lon="17.032929304987192">
        <ele>10.231201171875</ele>
        <time>2015-07-02T08:38:15Z</time>
      </trkpt>
      <trkpt lat="54.615578250959516" lon="17.032773233950138">
        <ele>10.231201171875</ele>
        <time>2015-07-02T08:38:19Z</time>
      </trkpt>
      <trkpt lat="54.615941606462002" lon="17.032325221225619">
        <ele>10.231201171875</ele>
        <time>2015-07-02T08:38:26Z</time>
      </trkpt>
      <trkpt lat="54.616492381319404" lon="17.031231047585607">
        <ele>12.15380859375</ele>
        <time>2015-07-02T08:38:44Z</time>
      </trkpt>
      <trkpt lat="54.617649503052235" lon="17.030400652438402">
        <ele>14.076416015625</ele>
        <time>2015-07-02T08:39:12Z</time>
      </trkpt>
      <trkpt lat="54.619524283334613" lon="17.029077401384711">
        <ele>12.6343994140625</ele>
        <time>2015-07-02T08:39:51Z</time>
      </trkpt>
      <trkpt lat="54.626695336773992" lon="17.024411614984274">
        <ele>10.7117919921875</ele>
        <time>2015-07-02T08:42:18Z</time>
      </trkpt>
      <trkpt lat="54.626809246838093" lon="17.024362748488784">
        <ele>10.7117919921875</ele>
        <time>2015-07-02T08:42:27Z</time>
      </trkpt>
      <trkpt lat="54.626861046999693" lon="17.024129144847393">
        <ele>11.6732177734375</ele>
        <time>2015-07-02T08:44:46Z</time>
      </trkpt>
      <trkpt lat="54.628028478473425" lon="17.022906728088856">
        <ele>9.2698974609375</ele>
        <time>2015-07-02T08:45:27Z</time>
      </trkpt>
      <trkpt lat="54.629306551069021" lon="17.02268754132092">
        <ele>8.30859375</ele>
        <time>2015-07-02T08:45:45Z</time>
      </trkpt>
      <trkpt lat="54.629347119480371" lon="17.022703718394041">
        <ele>8.30859375</ele>
        <time>2015-07-02T08:45:54Z</time>
      </trkpt>
      <trkpt lat="54.629555912688375" lon="17.022678069770336">
        <ele>6.3858642578125</ele>
        <time>2015-07-02T08:55:19Z</time>
      </trkpt>
      <trkpt lat="54.630685290321708" lon="17.02224237844348">
        <ele>6.866455078125</ele>
        <time>2015-07-02T08:56:04Z</time>
      </trkpt>
      <trkpt lat="54.631511075422168" lon="17.021329086273909">
        <ele>5.424560546875</ele>
        <time>2015-07-02T08:56:50Z</time>
      </trkpt>
      <trkpt lat="54.6316890232265" lon="17.021078383550048">
        <ele>10.7117919921875</ele>
        <time>2015-07-02T08:58:24Z</time>
      </trkpt>
      <trkpt lat="54.633225174620748" lon="17.019226904958487">
        <ele>13.1151123046875</ele>
        <time>2015-07-02T08:59:16Z</time>
      </trkpt>
      <trkpt lat="54.634222788736224" lon="17.01852542348206">
        <ele>10.231201171875</ele>
        <time>2015-07-02T08:59:21Z</time>
      </trkpt>
      <trkpt lat="54.63476886972785" lon="17.018135162070394">
        <ele>8.7891845703125</ele>
        <time>2015-07-02T08:59:31Z</time>
      </trkpt>
      <trkpt lat="54.635027619078755" lon="17.018059138208628">
        <ele>8.7891845703125</ele>
        <time>2015-07-02T08:59:36Z</time>
      </trkpt>
      <trkpt lat="54.638134120032191" lon="17.019500490278006">
        <ele>7.34716796875</ele>
        <time>2015-07-02T09:01:27Z</time>
      </trkpt>
      <trkpt lat="54.64112495072186" lon="17.021395973861217">
        <ele>6.3858642578125</ele>
        <time>2015-07-02T09:02:19Z</time>
      </trkpt>
      <trkpt lat="54.643296785652637" lon="17.022511186078191">
        <ele>5.9052734375</ele>
        <time>2015-07-02T09:02:59Z</time>
      </trkpt>
      <trkpt lat="54.643559055402875" lon="17.023566048592329">
        <ele>5.9052734375</ele>
        <time>2015-07-02T09:03:12Z</time>
      </trkpt>
    </trkseg>
  </trk>

  <trk>
    <name>ACTIVE LOG 015</name>
    <extensions>
      <gpxx:TrackExtension xmlns:gpxx="http://www.garmin.com/xmlschemas/GpxExtensions/v3">
        <gpxx:DisplayColor>Green</gpxx:DisplayColor>
      </gpxx:TrackExtension>
    </extensions>
    <trkseg>
      <trkpt lat="54.650091994553804" lon="17.049976335838437">
        <ele>-6.5919189453125</ele>
        <time>2015-07-02T09:08:57Z</time>
      </trkpt>
      <trkpt lat="54.650784004479647" lon="17.050544964149594">
        <ele>-6.5919189453125</ele>
        <time>2015-07-02T09:09:20Z</time>
      </trkpt>
      <trkpt lat="54.651123890653253" lon="17.050327034667134">
        <ele>-15.24365234375</ele>
        <time>2015-07-02T09:09:31Z</time>
      </trkpt>
      <trkpt lat="54.65403308160603" lon="17.050848891958594">
        <ele>-0.8240966796875</ele>
        <time>2015-07-02T09:10:48Z</time>
      </trkpt>
      <trkpt lat="54.654055293649435" lon="17.051007561385632">
        <ele>-1.3046875</ele>
        <time>2015-07-02T09:11:01Z</time>
      </trkpt>
      <trkpt lat="54.653939791023731" lon="17.050958024337888">
        <ele>-6.5919189453125</ele>
        <time>2015-07-02T10:04:21Z</time>
      </trkpt>
      <trkpt lat="54.654059987515211" lon="17.050995575264096">
        <ele>4.4632568359375</ele>
        <time>2015-07-02T10:14:48Z</time>
      </trkpt>
      <trkpt lat="54.654025286436081" lon="17.050730204209685">
        <ele>0.137451171875</ele>
        <time>2015-07-02T10:16:43Z</time>
      </trkpt>
      <trkpt lat="54.654019167646766" lon="17.050564913079143">
        <ele>0.6180419921875</ele>
        <time>2015-07-02T10:16:50Z</time>
      </trkpt>
      <trkpt lat="54.653983544558287" lon="17.050541695207357">
        <ele>0.137451171875</ele>
        <time>2015-07-02T10:16:52Z</time>
      </trkpt>
      <trkpt lat="54.653740134090185" lon="17.050481094047427">
        <ele>-0.3433837890625</ele>
        <time>2015-07-02T10:17:08Z</time>
      </trkpt>
      <trkpt lat="54.653640389442444" lon="17.049805009737611">
        <ele>1.0986328125</ele>
        <time>2015-07-02T10:17:26Z</time>
      </trkpt>
      <trkpt lat="54.653572579845786" lon="17.049886900931597">
        <ele>0.6180419921875</ele>
        <time>2015-07-02T10:17:35Z</time>
      </trkpt>
      <trkpt lat="54.652310432866216" lon="17.049616165459156">
        <ele>0.137451171875</ele>
        <time>2015-07-02T10:18:50Z</time>
      </trkpt>
      <trkpt lat="54.65192754752934" lon="17.049497477710247">
        <ele>2.5406494140625</ele>
        <time>2015-07-02T10:19:09Z</time>
      </trkpt>
      <trkpt lat="54.651986639946699" lon="17.048779148608446">
        <ele>3.501953125</ele>
        <time>2015-07-02T10:19:27Z</time>
      </trkpt>
      <trkpt lat="54.652012372389436" lon="17.048302302137017">
        <ele>2.5406494140625</ele>
        <time>2015-07-02T10:19:38Z</time>
      </trkpt>
      <trkpt lat="54.652504809200764" lon="17.048101304098964">
        <ele>2.06005859375</ele>
        <time>2015-07-02T10:19:56Z</time>
      </trkpt>
      <trkpt lat="54.652504306286573" lon="17.047828808426857">
        <ele>2.5406494140625</ele>
        <time>2015-07-02T10:20:02Z</time>
      </trkpt>
      <trkpt lat="54.652360053732991" lon="17.045994680374861">
        <ele>6.3858642578125</ele>
        <time>2015-07-02T10:20:39Z</time>
      </trkpt>
      <trkpt lat="54.654696257784963" lon="17.04112739302218">
        <ele>3.021240234375</ele>
        <time>2015-07-02T10:23:26Z</time>
      </trkpt>
      <trkpt lat="54.655906436964869" lon="17.03894860111177">
        <ele>1.579345703125</ele>
        <time>2015-07-02T10:24:35Z</time>
      </trkpt>
      <trkpt lat="54.655970055609941" lon="17.038668226450682">
        <ele>-0.3433837890625</ele>
        <time>2015-07-02T10:24:50Z</time>
      </trkpt>
      <trkpt lat="54.656663574278355" lon="17.034773239865899">
        <ele>0.6180419921875</ele>
        <time>2015-07-02T10:26:51Z</time>
      </trkpt>
      <trkpt lat="54.65709675103426" lon="17.033501202240586">
        <ele>5.9052734375</ele>
        <time>2015-07-02T10:27:40Z</time>
      </trkpt>
      <trkpt lat="54.65732591226697" lon="17.032902566716075">
        <ele>1.0986328125</ele>
        <time>2015-07-02T10:29:20Z</time>
      </trkpt>
    </trkseg>
  </trk>

  <trk>
    <name>ACTIVE LOG 016</name>
    <extensions>
      <gpxx:TrackExtension xmlns:gpxx="http://www.garmin.com/xmlschemas/GpxExtensions/v3">
        <gpxx:DisplayColor>Green</gpxx:DisplayColor>
      </gpxx:TrackExtension>
    </extensions>
    <trkseg>
      <trkpt lat="54.657752215862274" lon="17.04034611582756">
        <ele>-34.9508056640625</ele>
        <time>2015-07-02T12:31:04Z</time>
      </trkpt>
      <trkpt lat="54.65796310454607" lon="17.040926814079285">
        <ele>-28.2215576171875</ele>
        <time>2015-07-02T12:31:22Z</time>
      </trkpt>
      <trkpt lat="54.659040933474898" lon="17.042809976264834">
        <ele>-10.9178466796875</ele>
        <time>2015-07-02T12:32:15Z</time>
      </trkpt>
      <trkpt lat="54.660011725500226" lon="17.044301284477115">
        <ele>-8.5146484375</ele>
        <time>2015-07-02T12:32:51Z</time>
      </trkpt>
      <trkpt lat="54.660633578896523" lon="17.045220863074064">
        <ele>-7.072509765625</ele>
        <time>2015-07-02T12:33:14Z</time>
      </trkpt>
      <trkpt lat="54.663665229454637" lon="17.04970283433795">
        <ele>-1.7852783203125</ele>
        <time>2015-07-02T12:35:16Z</time>
      </trkpt>
      <trkpt lat="54.663568753749132" lon="17.049608286470175">
        <ele>-0.8240966796875</ele>
        <time>2015-07-02T12:35:59Z</time>
      </trkpt>
      <trkpt lat="54.663926074281335" lon="17.050286382436752">
        <ele>3.021240234375</ele>
        <time>2015-07-02T12:41:14Z</time>
      </trkpt>
      <trkpt lat="54.664623029530048" lon="17.051301179453731">
        <ele>1.579345703125</ele>
        <time>2015-07-02T12:41:52Z</time>
      </trkpt>
    </trkseg>
  </trk>

  <trk>
    <name>ACTIVE LOG 017</name>
    <extensions>
      <gpxx:TrackExtension xmlns:gpxx="http://www.garmin.com/xmlschemas/GpxExtensions/v3">
        <gpxx:DisplayColor>Green</gpxx:DisplayColor>
      </gpxx:TrackExtension>
    </extensions>
    <trkseg>
      <trkpt lat="54.664808269590139" lon="17.050303900614381">
        <ele>1.579345703125</ele>
        <time>2015-07-02T12:43:23Z</time>
      </trkpt>
      <trkpt lat="54.664243161678314" lon="17.050804635509849">
        <ele>1.579345703125</ele>
        <time>2015-07-02T12:43:55Z</time>
      </trkpt>
      <trkpt lat="54.664206448942423" lon="17.050673710182309">
        <ele>0.6180419921875</ele>
        <time>2015-07-02T12:46:15Z</time>
      </trkpt>
      <trkpt lat="54.664529822766781" lon="17.051493041217327">
        <ele>5.424560546875</ele>
        <time>2015-07-02T12:57:05Z</time>
      </trkpt>
      <trkpt lat="54.665231052786112" lon="17.057126685976982">
        <ele>-1.3046875</ele>
        <time>2015-07-02T12:59:02Z</time>
      </trkpt>
      <trkpt lat="54.665355943143368" lon="17.057144371792674">
        <ele>-2.2659912109375</ele>
        <time>2015-07-02T12:59:08Z</time>
      </trkpt>
      <trkpt lat="54.66578166000545" lon="17.056972039863467">
        <ele>-3.227294921875</ele>
        <time>2015-07-02T12:59:27Z</time>
      </trkpt>
      <trkpt lat="54.665599521249533" lon="17.0569565333426">
        <ele>-3.7078857421875</ele>
        <time>2015-07-02T12:59:40Z</time>
      </trkpt>
      <trkpt lat="54.664756050333381" lon="17.057412844151258">
        <ele>-4.1885986328125</ele>
        <time>2015-07-02T13:00:22Z</time>
      </trkpt>
      <trkpt lat="54.664696035906672" lon="17.057439330965281">
        <ele>-0.3433837890625</ele>
        <time>2015-07-02T13:00:51Z</time>
      </trkpt>
      <trkpt lat="54.664761833846569" lon="17.057516276836395">
        <ele>1.579345703125</ele>
        <time>2015-07-02T13:02:01Z</time>
      </trkpt>
      <trkpt lat="54.666286753490567" lon="17.055444102734327">
        <ele>-1.3046875</ele>
        <time>2015-07-02T13:03:11Z</time>
      </trkpt>
      <trkpt lat="54.666905086487532" lon="17.055587349459529">
        <ele>-1.3046875</ele>
        <time>2015-07-02T13:03:32Z</time>
      </trkpt>
      <trkpt lat="54.667008183896542" lon="17.055573519319296">
        <ele>-3.7078857421875</ele>
        <time>2015-07-02T13:03:37Z</time>
      </trkpt>
      <trkpt lat="54.668129263445735" lon="17.0559963863343">
        <ele>-4.6693115234375</ele>
        <time>2015-07-02T13:04:20Z</time>
      </trkpt>
      <trkpt lat="54.667962547391653" lon="17.058738442137837">
        <ele>-3.7078857421875</ele>
        <time>2015-07-02T13:05:17Z</time>
      </trkpt>
    </trkseg>
  </trk>

  <trk>
    <name>ACTIVE LOG 018</name>
    <extensions>
      <gpxx:TrackExtension xmlns:gpxx="http://www.garmin.com/xmlschemas/GpxExtensions/v3">
        <gpxx:DisplayColor>Green</gpxx:DisplayColor>
      </gpxx:TrackExtension>
    </extensions>
    <trkseg>
      <trkpt lat="54.667908567935228" lon="17.058848328888416">
        <ele>23.208984375</ele>
        <time>2015-07-02T13:07:14Z</time>
      </trkpt>
      <trkpt lat="54.668001104146242" lon="17.058935333043337">
        <ele>24.6510009765625</ele>
        <time>2015-07-02T13:07:30Z</time>
      </trkpt>
      <trkpt lat="54.668482895940542" lon="17.063792729750276">
        <ele>31.380126953125</ele>
        <time>2015-07-02T13:10:14Z</time>
      </trkpt>
      <trkpt lat="54.669047920033336" lon="17.079793279990554">
        <ele>31.380126953125</ele>
        <time>2015-07-02T13:14:29Z</time>
      </trkpt>
      <trkpt lat="54.668994527310133" lon="17.079982711002231">
        <ele>29.45751953125</ele>
        <time>2015-07-02T13:14:36Z</time>
      </trkpt>
      <trkpt lat="54.669027971103787" lon="17.080258475616574">
        <ele>28.4962158203125</ele>
        <time>2015-07-02T13:14:42Z</time>
      </trkpt>
      <trkpt lat="54.669043142348528" lon="17.080431561917067">
        <ele>28.0155029296875</ele>
        <time>2015-07-02T13:14:46Z</time>
      </trkpt>
      <trkpt lat="54.670070596039295" lon="17.082440033555031">
        <ele>23.6895751953125</ele>
        <time>2015-07-02T13:15:10Z</time>
      </trkpt>
      <trkpt lat="54.670104375109076" lon="17.082576658576727">
        <ele>15.5184326171875</ele>
        <time>2015-07-02T13:15:44Z</time>
      </trkpt>
      <trkpt lat="54.670240748673677" lon="17.083297586068511">
        <ele>14.076416015625</ele>
        <time>2015-07-02T13:16:03Z</time>
      </trkpt>
      <trkpt lat="54.671248085796833" lon="17.090337378904223">
        <ele>13.5958251953125</ele>
        <time>2015-07-02T13:18:08Z</time>
      </trkpt>
      <trkpt lat="54.671564921736717" lon="17.093513449653983">
        <ele>10.231201171875</ele>
        <time>2015-07-02T13:19:13Z</time>
      </trkpt>
      <trkpt lat="54.672190630808473" lon="17.099929628893733">
        <ele>8.7891845703125</ele>
        <time>2015-07-02T13:20:54Z</time>
      </trkpt>
      <trkpt lat="54.672330776229501" lon="17.102999584749341">
        <ele>9.7506103515625</ele>
        <time>2015-07-02T13:22:08Z</time>
      </trkpt>
      <trkpt lat="54.67283058911562" lon="17.105433689430356">
        <ele>8.30859375</ele>
        <time>2015-07-02T13:22:39Z</time>
      </trkpt>
      <trkpt lat="54.673104761168361" lon="17.106096362695098">
        <ele>8.7891845703125</ele>
        <time>2015-07-02T13:22:55Z</time>
      </trkpt>
      <trkpt lat="54.673271812498569" lon="17.108044484630227">
        <ele>7.34716796875</ele>
        <time>2015-07-02T13:23:45Z</time>
      </trkpt>
      <trkpt lat="54.673356134444475" lon="17.109414590522647">
        <ele>7.34716796875</ele>
        <time>2015-07-02T13:24:17Z</time>
      </trkpt>
    </trkseg>
  </trk>

  <trk>
    <name>ACTIVE LOG 019</name>
    <extensions>
      <gpxx:TrackExtension xmlns:gpxx="http://www.garmin.com/xmlschemas/GpxExtensions/v3">
        <gpxx:DisplayColor>Green</gpxx:DisplayColor>
      </gpxx:TrackExtension>
    </extensions>
    <trkseg>
      <trkpt lat="54.674145961180329" lon="17.116199657320976">
        <ele>7.34716796875</ele>
        <time>2015-07-02T13:25:58Z</time>
      </trkpt>
      <trkpt lat="54.674193067476153" lon="17.117137843742967">
        <ele>-1.3046875</ele>
        <time>2015-07-02T13:26:24Z</time>
      </trkpt>
      <trkpt lat="54.674873594194651" lon="17.12161629460752">
        <ele>-0.8240966796875</ele>
        <time>2015-07-02T13:27:40Z</time>
      </trkpt>
      <trkpt lat="54.675011895596981" lon="17.122582392767072">
        <ele>0.6180419921875</ele>
        <time>2015-07-02T13:28:00Z</time>
      </trkpt>
      <trkpt lat="54.675020277500153" lon="17.123148422688246">
        <ele>3.501953125</ele>
        <time>2015-07-02T13:28:16Z</time>
      </trkpt>
      <trkpt lat="54.675401151180267" lon="17.125105261802673">
        <ele>3.501953125</ele>
        <time>2015-07-02T13:29:21Z</time>
      </trkpt>
      <trkpt lat="54.675623523071408" lon="17.127341385930777">
        <ele>1.579345703125</ele>
        <time>2015-07-02T13:30:05Z</time>
      </trkpt>
      <trkpt lat="54.6759192366153" lon="17.130310591310263">
        <ele>-0.3433837890625</ele>
        <time>2015-07-02T13:31:14Z</time>
      </trkpt>
      <trkpt lat="54.676357777789235" lon="17.132587367668748">
        <ele>-0.3433837890625</ele>
        <time>2015-07-02T13:31:52Z</time>
      </trkpt>
      <trkpt lat="54.676373535767198" lon="17.132608406245708">
        <ele>1.0986328125</ele>
        <time>2015-07-02T13:32:05Z</time>
      </trkpt>
      <trkpt lat="54.676491972059011" lon="17.133074188604951">
        <ele>2.06005859375</ele>
        <time>2015-07-02T13:35:56Z</time>
      </trkpt>
      <trkpt lat="54.677338292822242" lon="17.135017951950431">
        <ele>3.501953125</ele>
        <time>2015-07-02T13:36:23Z</time>
      </trkpt>
      <trkpt lat="54.67769636772573" lon="17.135725887492299">
        <ele>6.866455078125</ele>
        <time>2015-07-02T13:36:45Z</time>
      </trkpt>
      <trkpt lat="54.678565403446555" lon="17.137635955587029">
        <ele>8.7891845703125</ele>
        <time>2015-07-02T13:37:37Z</time>
      </trkpt>
      <trkpt lat="54.678555428981781" lon="17.137706782668829">
        <ele>8.30859375</ele>
        <time>2015-07-02T13:37:39Z</time>
      </trkpt>
      <trkpt lat="54.678609492257237" lon="17.139783315360546">
        <ele>8.7891845703125</ele>
        <time>2015-07-02T13:38:19Z</time>
      </trkpt>
      <trkpt lat="54.678684258833528" lon="17.142126224935055">
        <ele>9.7506103515625</ele>
        <time>2015-07-02T13:38:47Z</time>
      </trkpt>
      <trkpt lat="54.678627178072929" lon="17.14331335388124">
        <ele>11.6732177734375</ele>
        <time>2015-07-02T13:39:10Z</time>
      </trkpt>
      <trkpt lat="54.67861108481884" lon="17.144135618582368">
        <ele>11.1925048828125</ele>
        <time>2015-07-02T13:39:29Z</time>
      </trkpt>
      <trkpt lat="54.678069027140737" lon="17.149102315306664">
        <ele>10.231201171875</ele>
        <time>2015-07-02T13:40:42Z</time>
      </trkpt>
      <trkpt lat="54.676481746137142" lon="17.15544356033206">
        <ele>14.076416015625</ele>
        <time>2015-07-02T13:43:24Z</time>
      </trkpt>
      <trkpt lat="54.675920410081744" lon="17.156710149720311">
        <ele>12.15380859375</ele>
        <time>2015-07-02T13:43:37Z</time>
      </trkpt>
      <trkpt lat="54.675601059570909" lon="17.156808050349355">
        <ele>12.15380859375</ele>
        <time>2015-07-02T13:43:42Z</time>
      </trkpt>
      <trkpt lat="54.675244661048055" lon="17.157408278435469">
        <ele>10.231201171875</ele>
        <time>2015-07-02T13:43:54Z</time>
      </trkpt>
      <trkpt lat="54.674745602533221" lon="17.157590165734291">
        <ele>7.34716796875</ele>
        <time>2015-07-02T13:44:08Z</time>
      </trkpt>
      <trkpt lat="54.674114277586341" lon="17.15819944627583">
        <ele>5.424560546875</ele>
        <time>2015-07-02T13:44:26Z</time>
      </trkpt>
      <trkpt lat="54.674024088308215" lon="17.158209756016731">
        <ele>4.94384765625</ele>
        <time>2015-07-02T13:44:28Z</time>
      </trkpt>
      <trkpt lat="54.672883562743664" lon="17.158567160367966">
        <ele>2.06005859375</ele>
        <time>2015-07-02T13:44:56Z</time>
      </trkpt>
      <trkpt lat="54.672190211713314" lon="17.159009305760264">
        <ele>1.579345703125</ele>
        <time>2015-07-02T13:45:14Z</time>
      </trkpt>
      <trkpt lat="54.670741902664304" lon="17.159617496654391">
        <ele>0.6180419921875</ele>
        <time>2015-07-02T13:45:54Z</time>
      </trkpt>
      <trkpt lat="54.670269750058651" lon="17.159923436120152">
        <ele>0.137451171875</ele>
        <time>2015-07-02T13:46:09Z</time>
      </trkpt>
      <trkpt lat="54.669001735746861" lon="17.160576554015279">
        <ele>-1.3046875</ele>
        <time>2015-07-02T13:46:49Z</time>
      </trkpt>
      <trkpt lat="54.668985810130835" lon="17.160554761067033">
        <ele>-1.7852783203125</ele>
        <time>2015-07-02T13:47:13Z</time>
      </trkpt>
      <trkpt lat="54.668976590037346" lon="17.160658361390233">
        <ele>-0.3433837890625</ele>
        <time>2015-07-02T13:49:13Z</time>
      </trkpt>
      <trkpt lat="54.669029898941517" lon="17.161283483728766">
        <ele>-0.3433837890625</ele>
        <time>2015-07-02T13:49:29Z</time>
      </trkpt>
      <trkpt lat="54.669589558616281" lon="17.165283663198352">
        <ele>-0.8240966796875</ele>
        <time>2015-07-02T13:50:51Z</time>
      </trkpt>
      <trkpt lat="54.67135394923389" lon="17.178506031632423">
        <ele>-0.3433837890625</ele>
        <time>2015-07-02T13:54:50Z</time>
      </trkpt>
      <trkpt lat="54.671476492658257" lon="17.180910045281053">
        <ele>-0.8240966796875</ele>
        <time>2015-07-02T13:55:44Z</time>
      </trkpt>
      <trkpt lat="54.672045204788446" lon="17.183499466627836">
        <ele>-0.3433837890625</ele>
        <time>2015-07-02T13:56:38Z</time>
      </trkpt>
      <trkpt lat="54.672079738229513" lon="17.183553948998451">
        <ele>-0.3433837890625</ele>
        <time>2015-07-02T13:56:40Z</time>
      </trkpt>
      <trkpt lat="54.672217955812812" lon="17.184239504858851">
        <ele>0.6180419921875</ele>
        <time>2015-07-02T13:56:52Z</time>
      </trkpt>
      <trkpt lat="54.672269085422158" lon="17.186358449980617">
        <ele>-0.8240966796875</ele>
        <time>2015-07-02T13:57:07Z</time>
      </trkpt>
      <trkpt lat="54.672041600570083" lon="17.187650604173541">
        <ele>0.137451171875</ele>
        <time>2015-07-02T13:57:28Z</time>
      </trkpt>
      <trkpt lat="54.671637760475278" lon="17.189487665891647">
        <ele>-2.2659912109375</ele>
        <time>2015-07-02T13:58:07Z</time>
      </trkpt>
      <trkpt lat="54.671318493783474" lon="17.193281147629023">
        <ele>-4.6693115234375</ele>
        <time>2015-07-02T13:59:14Z</time>
      </trkpt>
      <trkpt lat="54.671093188226223" lon="17.194107435643673">
        <ele>-2.2659912109375</ele>
        <time>2015-07-02T14:03:28Z</time>
      </trkpt>
      <trkpt lat="54.670836618170142" lon="17.195203704759479">
        <ele>-2.7467041015625</ele>
        <time>2015-07-02T14:03:50Z</time>
      </trkpt>
      <trkpt lat="54.670501677319407" lon="17.19634079374373">
        <ele>-2.2659912109375</ele>
        <time>2015-07-02T14:04:17Z</time>
      </trkpt>
      <trkpt lat="54.670247957110405" lon="17.197041604667902">
        <ele>3.982666015625</ele>
        <time>2015-07-02T14:06:06Z</time>
      </trkpt>
      <trkpt lat="54.665879057720304" lon="17.207870353013277">
        <ele>2.5406494140625</ele>
        <time>2015-07-02T14:09:50Z</time>
      </trkpt>
      <trkpt lat="54.664508113637567" lon="17.21122931689024">
        <ele>2.06005859375</ele>
        <time>2015-07-02T14:11:02Z</time>
      </trkpt>
      <trkpt lat="54.663773439824581" lon="17.212343104183674">
        <ele>1.579345703125</ele>
        <time>2015-07-02T14:11:33Z</time>
      </trkpt>
      <trkpt lat="54.6637430973351" lon="17.212316868826747">
        <ele>1.0986328125</ele>
        <time>2015-07-02T14:11:42Z</time>
      </trkpt>
      <trkpt lat="54.663792634382844" lon="17.212328854948282">
        <ele>2.5406494140625</ele>
        <time>2015-07-02T14:11:55Z</time>
      </trkpt>
      <trkpt lat="54.663877794519067" lon="17.212182255461812">
        <ele>1.0986328125</ele>
        <time>2015-07-02T14:12:00Z</time>
      </trkpt>
      <trkpt lat="54.664179710671306" lon="17.212106483057141">
        <ele>1.0986328125</ele>
        <time>2015-07-02T14:12:11Z</time>
      </trkpt>
      <trkpt lat="54.665329791605473" lon="17.213877411559224">
        <ele>-0.3433837890625</ele>
        <time>2015-07-02T14:12:56Z</time>
      </trkpt>
      <trkpt lat="54.665396930649877" lon="17.213925356045365">
        <ele>-0.3433837890625</ele>
        <time>2015-07-02T14:13:02Z</time>
      </trkpt>
      <trkpt lat="54.665383268147707" lon="17.213825276121497">
        <ele>3.021240234375</ele>
        <time>2015-07-02T14:40:37Z</time>
      </trkpt>
      <trkpt lat="54.665290815755725" lon="17.213855283334851">
        <ele>2.5406494140625</ele>
        <time>2015-07-02T14:40:41Z</time>
      </trkpt>
      <trkpt lat="54.664821596816182" lon="17.214371357113123">
        <ele>2.5406494140625</ele>
        <time>2015-07-02T14:40:58Z</time>
      </trkpt>
      <trkpt lat="54.664738699793816" lon="17.21444595605135">
        <ele>2.5406494140625</ele>
        <time>2015-07-02T14:41:02Z</time>
      </trkpt>
      <trkpt lat="54.664370818063617" lon="17.215014919638634">
        <ele>0.137451171875</ele>
        <time>2015-07-02T14:41:21Z</time>
      </trkpt>
      <trkpt lat="54.662551693618298" lon="17.217633258551359">
        <ele>-0.3433837890625</ele>
        <time>2015-07-02T14:42:32Z</time>
      </trkpt>
      <trkpt lat="54.661515271291137" lon="17.218799684196711">
        <ele>0.137451171875</ele>
        <time>2015-07-02T14:43:05Z</time>
      </trkpt>
      <trkpt lat="54.661052674055099" lon="17.219639467075467">
        <ele>0.137451171875</ele>
        <time>2015-07-02T14:43:23Z</time>
      </trkpt>
      <trkpt lat="54.660110883414745" lon="17.220534654334188">
        <ele>0.137451171875</ele>
        <time>2015-07-02T14:43:50Z</time>
      </trkpt>
      <trkpt lat="54.656892064958811" lon="17.223754227161407">
        <ele>0.6180419921875</ele>
        <time>2015-07-02T14:45:29Z</time>
      </trkpt>
      <trkpt lat="54.656678577885032" lon="17.225173451006413">
        <ele>-0.3433837890625</ele>
        <time>2015-07-02T14:45:51Z</time>
      </trkpt>
      <trkpt lat="54.655231861397624" lon="17.232758486643434">
        <ele>6.866455078125</ele>
        <time>2015-07-02T14:47:52Z</time>
      </trkpt>
      <trkpt lat="54.654873786494136" lon="17.234308049082756">
        <ele>6.3858642578125</ele>
        <time>2015-07-02T14:48:17Z</time>
      </trkpt>
      <trkpt lat="54.654429545626044" lon="17.236279221251607">
        <ele>5.424560546875</ele>
        <time>2015-07-02T14:48:51Z</time>
      </trkpt>
      <trkpt lat="54.653745833784342" lon="17.238955898210406">
        <ele>4.4632568359375</ele>
        <time>2015-07-02T14:49:37Z</time>
      </trkpt>
      <trkpt lat="54.653125992044806" lon="17.241353876888752">
        <ele>6.3858642578125</ele>
        <time>2015-07-02T14:50:32Z</time>
      </trkpt>
      <trkpt lat="54.652932621538639" lon="17.242455258965492">
        <ele>11.6732177734375</ele>
        <time>2015-07-02T14:50:54Z</time>
      </trkpt>
      <trkpt lat="54.651849512010813" lon="17.245892509818077">
        <ele>5.9052734375</ele>
        <time>2015-07-02T14:52:25Z</time>
      </trkpt>
      <trkpt lat="54.651164878159761" lon="17.248270371928811">
        <ele>7.827880859375</ele>
        <time>2015-07-02T14:53:15Z</time>
      </trkpt>
      <trkpt lat="54.650556519627571" lon="17.249303441494703">
        <ele>9.2698974609375</ele>
        <time>2015-07-02T14:53:39Z</time>
      </trkpt>
      <trkpt lat="54.649805082008243" lon="17.250292338430882">
        <ele>8.30859375</ele>
        <time>2015-07-02T14:53:59Z</time>
      </trkpt>
      <trkpt lat="54.649149449542165" lon="17.25112097337842">
        <ele>6.866455078125</ele>
        <time>2015-07-02T14:54:11Z</time>
      </trkpt>
      <trkpt lat="54.649366959929466" lon="17.254035864025354">
        <ele>5.9052734375</ele>
        <time>2015-07-02T14:54:37Z</time>
      </trkpt>
      <trkpt lat="54.649363020434976" lon="17.254653023555875">
        <ele>5.424560546875</ele>
        <time>2015-07-02T14:54:43Z</time>
      </trkpt>
      <trkpt lat="54.649086585268378" lon="17.254984444007277">
        <ele>4.94384765625</ele>
        <time>2015-07-02T14:54:50Z</time>
      </trkpt>
      <trkpt lat="54.648271445184946" lon="17.25511847063899">
        <ele>6.3858642578125</ele>
        <time>2015-07-02T14:55:08Z</time>
      </trkpt>
      <trkpt lat="54.6480199880898" lon="17.255256352946162">
        <ele>6.3858642578125</ele>
        <time>2015-07-02T14:55:14Z</time>
      </trkpt>
      <trkpt lat="54.647400649264455" lon="17.256340216845274">
        <ele>7.827880859375</ele>
        <time>2015-07-02T14:55:37Z</time>
      </trkpt>
      <trkpt lat="54.646685505285859" lon="17.257476719096303">
        <ele>7.827880859375</ele>
        <time>2015-07-02T14:56:04Z</time>
      </trkpt>
      <trkpt lat="54.644263051450253" lon="17.261030981317163">
        <ele>6.866455078125</ele>
        <time>2015-07-02T14:57:18Z</time>
      </trkpt>
      <trkpt lat="54.643533155322075" lon="17.262357166036963">
        <ele>5.9052734375</ele>
        <time>2015-07-02T14:57:39Z</time>
      </trkpt>
      <trkpt lat="54.643506333231926" lon="17.262409217655659">
        <ele>5.9052734375</ele>
        <time>2015-07-02T14:57:40Z</time>
      </trkpt>
      <trkpt lat="54.64329301379621" lon="17.262590602040291">
        <ele>7.34716796875</ele>
        <time>2015-07-02T14:57:46Z</time>
      </trkpt>
      <trkpt lat="54.642479717731476" lon="17.262602839618921">
        <ele>6.3858642578125</ele>
        <time>2015-07-02T14:58:05Z</time>
      </trkpt>
      <trkpt lat="54.641488641500473" lon="17.262606108561158">
        <ele>4.4632568359375</ele>
        <time>2015-07-02T14:58:27Z</time>
      </trkpt>
      <trkpt lat="54.640279300510883" lon="17.26256956346333">
        <ele>3.982666015625</ele>
        <time>2015-07-02T14:58:53Z</time>
      </trkpt>
      <trkpt lat="54.639066606760025" lon="17.262549195438623">
        <ele>4.4632568359375</ele>
        <time>2015-07-02T14:59:21Z</time>
      </trkpt>
      <trkpt lat="54.637986766174436" lon="17.262547267600894">
        <ele>4.4632568359375</ele>
        <time>2015-07-02T14:59:47Z</time>
      </trkpt>
      <trkpt lat="54.636287000030279" lon="17.262553637847304">
        <ele>4.94384765625</ele>
        <time>2015-07-02T15:00:26Z</time>
      </trkpt>
      <trkpt lat="54.633974181488156" lon="17.261865567415953">
        <ele>3.021240234375</ele>
        <time>2015-07-02T15:01:20Z</time>
      </trkpt>
      <trkpt lat="54.631727579981089" lon="17.260860912501812">
        <ele>3.501953125</ele>
        <time>2015-07-02T15:02:17Z</time>
      </trkpt>
      <trkpt lat="54.631103966385126" lon="17.260063206776977">
        <ele>2.06005859375</ele>
        <time>2015-07-02T15:02:39Z</time>
      </trkpt>
      <trkpt lat="54.631066247820854" lon="17.259991625323892">
        <ele>2.06005859375</ele>
        <time>2015-07-02T15:02:41Z</time>
      </trkpt>
      <trkpt lat="54.631193233653903" lon="17.259571272879839">
        <ele>2.5406494140625</ele>
        <time>2015-07-02T15:02:48Z</time>
      </trkpt>
      <trkpt lat="54.631396746262908" lon="17.256602989509702">
        <ele>6.3858642578125</ele>
        <time>2015-07-02T15:03:31Z</time>
      </trkpt>
      <trkpt lat="54.631392387673259" lon="17.255101287737489">
        <ele>7.827880859375</ele>
        <time>2015-07-02T15:03:56Z</time>
      </trkpt>
      <trkpt lat="54.631180828437209" lon="17.254100823774934">
        <ele>8.7891845703125</ele>
        <time>2015-07-02T15:04:15Z</time>
      </trkpt>
      <trkpt lat="54.630675399675965" lon="17.251809379085898">
        <ele>10.231201171875</ele>
        <time>2015-07-02T15:04:56Z</time>
      </trkpt>
      <trkpt lat="54.630243731662631" lon="17.249579960480332">
        <ele>10.231201171875</ele>
        <time>2015-07-02T15:05:33Z</time>
      </trkpt>
      <trkpt lat="54.63002035394311" lon="17.248075660318136">
        <ele>9.7506103515625</ele>
        <time>2015-07-02T15:05:58Z</time>
      </trkpt>
      <trkpt lat="54.629883477464318" lon="17.246988192200661">
        <ele>11.1925048828125</ele>
        <time>2015-07-02T15:06:16Z</time>
      </trkpt>
      <trkpt lat="54.62956789880991" lon="17.246084287762642">
        <ele>12.15380859375</ele>
        <time>2015-07-02T15:06:33Z</time>
      </trkpt>
      <trkpt lat="54.628294855356216" lon="17.244146475568414">
        <ele>12.15380859375</ele>
        <time>2015-07-02T15:07:16Z</time>
      </trkpt>
      <trkpt lat="54.627138655632734" lon="17.242682659998536">
        <ele>13.1151123046875</ele>
        <time>2015-07-02T15:07:50Z</time>
      </trkpt>
      <trkpt lat="54.625682719051838" lon="17.24223087541759">
        <ele>14.076416015625</ele>
        <time>2015-07-02T15:08:23Z</time>
      </trkpt>
      <trkpt lat="54.622465744614601" lon="17.240935871377587">
        <ele>13.1151123046875</ele>
        <time>2015-07-02T15:09:41Z</time>
      </trkpt>
      <trkpt lat="54.620422404259443" lon="17.24075423553586">
        <ele>14.5570068359375</ele>
        <time>2015-07-02T15:10:32Z</time>
      </trkpt>
      <trkpt lat="54.620017474517226" lon="17.240582657977939">
        <ele>14.076416015625</ele>
        <time>2015-07-02T15:10:44Z</time>
      </trkpt>
      <trkpt lat="54.618572937324643" lon="17.239015744999051">
        <ele>15.5184326171875</ele>
        <time>2015-07-02T15:11:28Z</time>
      </trkpt>
    </trkseg>
  </trk>

  <trk>
    <name>ACTIVE LOG 020</name>
    <extensions>
      <gpxx:TrackExtension xmlns:gpxx="http://www.garmin.com/xmlschemas/GpxExtensions/v3">
        <gpxx:DisplayColor>Green</gpxx:DisplayColor>
      </gpxx:TrackExtension>
    </extensions>
    <trkseg>
      <trkpt lat="54.618022246286273" lon="17.238753978163004">
        <ele>23.208984375</ele>
        <time>2015-07-02T15:13:05Z</time>
      </trkpt>
      <trkpt lat="54.617553446441889" lon="17.238672841340303">
        <ele>15.0377197265625</ele>
        <time>2015-07-02T15:13:19Z</time>
      </trkpt>
      <trkpt lat="54.616943746805191" lon="17.238586507737637">
        <ele>15.9990234375</ele>
        <time>2015-07-02T15:13:46Z</time>
      </trkpt>
      <trkpt lat="54.615078521892428" lon="17.238100944086909">
        <ele>15.5184326171875</ele>
        <time>2015-07-02T15:14:37Z</time>
      </trkpt>
      <trkpt lat="54.614987578243017" lon="17.238086275756359">
        <ele>15.5184326171875</ele>
        <time>2015-07-02T15:14:39Z</time>
      </trkpt>
      <trkpt lat="54.614103874191642" lon="17.237899275496602">
        <ele>14.076416015625</ele>
        <time>2015-07-02T15:14:56Z</time>
      </trkpt>
      <trkpt lat="54.611052107065916" lon="17.237860634922981">
        <ele>11.1925048828125</ele>
        <time>2015-07-02T15:15:56Z</time>
      </trkpt>
      <trkpt lat="54.609783422201872" lon="17.237984100356698">
        <ele>12.15380859375</ele>
        <time>2015-07-02T15:16:26Z</time>
      </trkpt>
      <trkpt lat="54.608627641573548" lon="17.238098094239831">
        <ele>10.7117919921875</ele>
        <time>2015-07-02T15:16:56Z</time>
      </trkpt>
      <trkpt lat="54.60275100544095" lon="17.23821435123682">
        <ele>16.96044921875</ele>
        <time>2015-07-02T15:19:47Z</time>
      </trkpt>
      <trkpt lat="54.601935781538486" lon="17.238324489444494">
        <ele>19.36376953125</ele>
        <time>2015-07-02T15:20:15Z</time>
      </trkpt>
      <trkpt lat="54.600787796080112" lon="17.238423731178045">
        <ele>22.24755859375</ele>
        <time>2015-07-02T15:20:57Z</time>
      </trkpt>
      <trkpt lat="54.599872408434749" lon="17.238261038437486">
        <ele>22.728271484375</ele>
        <time>2015-07-02T15:21:25Z</time>
      </trkpt>
      <trkpt lat="54.598962217569351" lon="17.237621247768402">
        <ele>23.208984375</ele>
        <time>2015-07-02T15:21:51Z</time>
      </trkpt>
      <trkpt lat="54.597953539341688" lon="17.236948348581791">
        <ele>23.208984375</ele>
        <time>2015-07-02T15:22:21Z</time>
      </trkpt>
      <trkpt lat="54.595840126276016" lon="17.236373936757445">
        <ele>28.0155029296875</ele>
        <time>2015-07-02T15:23:26Z</time>
      </trkpt>
      <trkpt lat="54.593645995482802" lon="17.236423976719379">
        <ele>25.1317138671875</ele>
        <time>2015-07-02T15:24:26Z</time>
      </trkpt>
      <trkpt lat="54.595263283699751" lon="17.245349446311593">
        <ele>29.45751953125</ele>
        <time>2015-07-02T15:26:56Z</time>
      </trkpt>
      <trkpt lat="54.595412146300077" lon="17.246943935751915">
        <ele>29.45751953125</ele>
        <time>2015-07-02T15:27:19Z</time>
      </trkpt>
      <trkpt lat="54.595666620880365" lon="17.251157350838184">
        <ele>27.534912109375</ele>
        <time>2015-07-02T15:28:26Z</time>
      </trkpt>
      <trkpt lat="54.595720432698727" lon="17.257154686376452">
        <ele>29.45751953125</ele>
        <time>2015-07-02T15:29:57Z</time>
      </trkpt>
      <trkpt lat="54.595658909529448" lon="17.259816275909543">
        <ele>29.45751953125</ele>
        <time>2015-07-02T15:30:38Z</time>
      </trkpt>
      <trkpt lat="54.59558037109673" lon="17.265618396922946">
        <ele>27.534912109375</ele>
        <time>2015-07-02T15:32:09Z</time>
      </trkpt>
      <trkpt lat="54.595926124602556" lon="17.267999444156885">
        <ele>26.5736083984375</ele>
        <time>2015-07-02T15:32:44Z</time>
      </trkpt>
      <trkpt lat="54.59585789591074" lon="17.268071109429002">
        <ele>26.0928955078125</ele>
        <time>2015-07-02T15:32:47Z</time>
      </trkpt>
      <trkpt lat="54.595988066866994" lon="17.269124966114759">
        <ele>28.9769287109375</ele>
        <time>2015-07-02T15:33:03Z</time>
      </trkpt>
      <trkpt lat="54.596742773428559" lon="17.273924276232719">
        <ele>28.4962158203125</ele>
        <time>2015-07-02T15:34:20Z</time>
      </trkpt>
      <trkpt lat="54.596973275765777" lon="17.275921097025275">
        <ele>30.4188232421875</ele>
        <time>2015-07-02T15:34:57Z</time>
      </trkpt>
      <trkpt lat="54.597490439191461" lon="17.27781331166625">
        <ele>30.4188232421875</ele>
        <time>2015-07-02T15:35:19Z</time>
      </trkpt>
      <trkpt lat="54.597519021481276" lon="17.278003664687276">
        <ele>30.8995361328125</ele>
        <time>2015-07-02T15:35:22Z</time>
      </trkpt>
      <trkpt lat="54.597656317055225" lon="17.279065316542983">
        <ele>29.9381103515625</ele>
        <time>2015-07-02T15:35:38Z</time>
      </trkpt>
      <trkpt lat="54.597889082506299" lon="17.28057648986578">
        <ele>31.380126953125</ele>
        <time>2015-07-02T15:36:03Z</time>
      </trkpt>
      <trkpt lat="54.598296359181404" lon="17.283390378579497">
        <ele>31.8607177734375</ele>
        <time>2015-07-02T15:36:50Z</time>
      </trkpt>
      <trkpt lat="54.598770020529628" lon="17.285738987848163">
        <ele>29.9381103515625</ele>
        <time>2015-07-02T15:37:24Z</time>
      </trkpt>
      <trkpt lat="54.599015945568681" lon="17.287470856681466">
        <ele>28.4962158203125</ele>
        <time>2015-07-02T15:37:50Z</time>
      </trkpt>
      <trkpt lat="54.599706614390016" lon="17.289210939779878">
        <ele>26.5736083984375</ele>
        <time>2015-07-02T15:38:20Z</time>
      </trkpt>
      <trkpt lat="54.600436594337225" lon="17.290755975991488">
        <ele>28.4962158203125</ele>
        <time>2015-07-02T15:38:50Z</time>
      </trkpt>
      <trkpt lat="54.601166909560561" lon="17.292201519012451">
        <ele>25.1317138671875</ele>
        <time>2015-07-02T15:39:20Z</time>
      </trkpt>
      <trkpt lat="54.601866211742163" lon="17.293640607967973">
        <ele>24.1702880859375</ele>
        <time>2015-07-02T15:39:48Z</time>
      </trkpt>
      <trkpt lat="54.602062599733472" lon="17.294512996450067">
        <ele>24.6510009765625</ele>
        <time>2015-07-02T15:40:02Z</time>
      </trkpt>
      <trkpt lat="54.602089589461684" lon="17.29493142105639">
        <ele>24.6510009765625</ele>
        <time>2015-07-02T15:40:08Z</time>
      </trkpt>
      <trkpt lat="54.601844837889075" lon="17.298735380172729">
        <ele>24.6510009765625</ele>
        <time>2015-07-02T15:41:09Z</time>
      </trkpt>
      <trkpt lat="54.601746769621968" lon="17.299795942381024">
        <ele>23.208984375</ele>
        <time>2015-07-02T15:41:35Z</time>
      </trkpt>
      <trkpt lat="54.60178641602397" lon="17.299653785303235">
        <ele>25.1317138671875</ele>
        <time>2015-07-02T15:41:51Z</time>
      </trkpt>
      <trkpt lat="54.601798402145505" lon="17.299451949074864">
        <ele>33.783447265625</ele>
        <time>2015-07-02T15:43:51Z</time>
      </trkpt>
    </trkseg>
  </trk>

  <trk>
    <name>ACTIVE LOG 021</name>
    <extensions>
      <gpxx:TrackExtension xmlns:gpxx="http://www.garmin.com/xmlschemas/GpxExtensions/v3">
        <gpxx:DisplayColor>Green</gpxx:DisplayColor>
      </gpxx:TrackExtension>
    </extensions>
    <trkseg>
      <trkpt lat="54.601829247549176" lon="17.299197055399418">
        <ele>31.8607177734375</ele>
        <time>2015-07-02T15:53:23Z</time>
      </trkpt>
      <trkpt lat="54.601779542863369" lon="17.299223123118281">
        <ele>29.9381103515625</ele>
        <time>2015-07-02T15:53:36Z</time>
      </trkpt>
      <trkpt lat="54.601769400760531" lon="17.299243407323956">
        <ele>29.9381103515625</ele>
        <time>2015-07-02T15:53:39Z</time>
      </trkpt>
      <trkpt lat="54.601732771843672" lon="17.299407524988055">
        <ele>30.4188232421875</ele>
        <time>2015-07-02T15:53:51Z</time>
      </trkpt>
      <trkpt lat="54.60166722536087" lon="17.30035912245512">
        <ele>31.8607177734375</ele>
        <time>2015-07-02T15:54:15Z</time>
      </trkpt>
      <trkpt lat="54.601512243971229" lon="17.302111275494099">
        <ele>28.9769287109375</ele>
        <time>2015-07-02T15:54:45Z</time>
      </trkpt>
      <trkpt lat="54.601417444646358" lon="17.304182024672627">
        <ele>29.9381103515625</ele>
        <time>2015-07-02T15:55:21Z</time>
      </trkpt>
      <trkpt lat="54.601816423237324" lon="17.308787796646357">
        <ele>29.9381103515625</ele>
        <time>2015-07-02T15:56:18Z</time>
      </trkpt>
      <trkpt lat="54.602076848968863" lon="17.311415271833539">
        <ele>27.534912109375</ele>
        <time>2015-07-02T15:56:55Z</time>
      </trkpt>
      <trkpt lat="54.603088041767478" lon="17.316157920286059">
        <ele>28.4962158203125</ele>
        <time>2015-07-02T15:58:08Z</time>
      </trkpt>
      <trkpt lat="54.605490043759346" lon="17.321797097101808">
        <ele>28.9769287109375</ele>
        <time>2015-07-02T15:59:52Z</time>
      </trkpt>
      <trkpt lat="54.607219649478793" lon="17.328325677663088">
        <ele>24.1702880859375</ele>
        <time>2015-07-02T16:01:17Z</time>
      </trkpt>
      <trkpt lat="54.607703620567918" lon="17.331622280180454">
        <ele>21.7669677734375</ele>
        <time>2015-07-02T16:01:30Z</time>
      </trkpt>
      <trkpt lat="54.607568839564919" lon="17.333038570359349">
        <ele>17.441162109375</ele>
        <time>2015-07-02T16:01:44Z</time>
      </trkpt>
      <trkpt lat="54.607498263940215" lon="17.334256041795015">
        <ele>17.9217529296875</ele>
        <time>2015-07-02T16:02:02Z</time>
      </trkpt>
      <trkpt lat="54.61024509742856" lon="17.343427184969187">
        <ele>8.30859375</ele>
        <time>2015-07-02T16:04:27Z</time>
      </trkpt>
      <trkpt lat="54.61084071546793" lon="17.344000423327088">
        <ele>8.7891845703125</ele>
        <time>2015-07-02T16:04:47Z</time>
      </trkpt>
      <trkpt lat="54.611933045089245" lon="17.346874997019768">
        <ele>11.1925048828125</ele>
        <time>2015-07-02T16:06:01Z</time>
      </trkpt>
      <trkpt lat="54.611709080636501" lon="17.348646176978946">
        <ele>10.7117919921875</ele>
        <time>2015-07-02T16:06:33Z</time>
      </trkpt>
      <trkpt lat="54.611068200320005" lon="17.35290477052331">
        <ele>9.7506103515625</ele>
        <time>2015-07-02T16:07:56Z</time>
      </trkpt>
      <trkpt lat="54.610400581732392" lon="17.358881821855903">
        <ele>14.5570068359375</ele>
        <time>2015-07-02T16:09:32Z</time>
      </trkpt>
      <trkpt lat="54.611882753670216" lon="17.362957522273064">
        <ele>17.441162109375</ele>
        <time>2015-07-02T16:10:50Z</time>
      </trkpt>
      <trkpt lat="54.612480802461505" lon="17.364916289225221">
        <ele>14.5570068359375</ele>
        <time>2015-07-02T16:11:21Z</time>
      </trkpt>
      <trkpt lat="54.612759165465832" lon="17.370756128802896">
        <ele>24.1702880859375</ele>
        <time>2015-07-02T16:13:36Z</time>
      </trkpt>
      <trkpt lat="54.613680420443416" lon="17.38181839697063">
        <ele>30.4188232421875</ele>
        <time>2015-07-02T16:16:50Z</time>
      </trkpt>
      <trkpt lat="54.613837245851755" lon="17.383290594443679">
        <ele>30.8995361328125</ele>
        <time>2015-07-02T16:17:17Z</time>
      </trkpt>
      <trkpt lat="54.613997507840395" lon="17.385010896250606">
        <ele>30.8995361328125</ele>
        <time>2015-07-02T16:17:44Z</time>
      </trkpt>
      <trkpt lat="54.614635454490781" lon="17.392336344346404">
        <ele>31.380126953125</ele>
        <time>2015-07-02T16:19:55Z</time>
      </trkpt>
      <trkpt lat="54.615288572385907" lon="17.399919116869569">
        <ele>37.1480712890625</ele>
        <time>2015-07-02T16:22:17Z</time>
      </trkpt>
      <trkpt lat="54.61546316742897" lon="17.401782581582665">
        <ele>37.628662109375</ele>
        <time>2015-07-02T16:22:50Z</time>
      </trkpt>
      <trkpt lat="54.615913107991219" lon="17.40673603489995">
        <ele>36.66748046875</ele>
        <time>2015-07-02T16:24:08Z</time>
      </trkpt>
      <trkpt lat="54.61609642021358" lon="17.4092270527035">
        <ele>37.1480712890625</ele>
        <time>2015-07-02T16:24:46Z</time>
      </trkpt>
      <trkpt lat="54.616276882588863" lon="17.410992616787553">
        <ele>39.0706787109375</ele>
        <time>2015-07-02T16:25:14Z</time>
      </trkpt>
      <trkpt lat="54.616744257509708" lon="17.413376765325665">
        <ele>37.1480712890625</ele>
        <time>2015-07-02T16:25:49Z</time>
      </trkpt>
      <trkpt lat="54.617750672623515" lon="17.424786631017923">
        <ele>25.6123046875</ele>
        <time>2015-07-02T16:27:52Z</time>
      </trkpt>
      <trkpt lat="54.61782468482852" lon="17.425129534676671">
        <ele>24.6510009765625</ele>
        <time>2015-07-02T16:27:57Z</time>
      </trkpt>
      <trkpt lat="54.618042446672916" lon="17.425930090248585">
        <ele>26.5736083984375</ele>
        <time>2015-07-02T16:28:10Z</time>
      </trkpt>
      <trkpt lat="54.618022749200463" lon="17.42610820569098">
        <ele>23.208984375</ele>
        <time>2015-07-02T16:29:31Z</time>
      </trkpt>
      <trkpt lat="54.618093157187104" lon="17.426756964996457">
        <ele>22.728271484375</ele>
        <time>2015-07-02T16:29:41Z</time>
      </trkpt>
      <trkpt lat="54.618132635951042" lon="17.42884062230587">
        <ele>22.728271484375</ele>
        <time>2015-07-02T16:30:08Z</time>
      </trkpt>
      <trkpt lat="54.622070705518126" lon="17.437666263431311">
        <ele>21.286376953125</ele>
        <time>2015-07-02T16:32:56Z</time>
      </trkpt>
      <trkpt lat="54.623405439779162" lon="17.441312726587057">
        <ele>19.36376953125</ele>
        <time>2015-07-02T16:34:02Z</time>
      </trkpt>
      <trkpt lat="54.624453261494637" lon="17.444728184491396">
        <ele>17.441162109375</ele>
        <time>2015-07-02T16:35:03Z</time>
      </trkpt>
      <trkpt lat="54.626412698999047" lon="17.45108837261796">
        <ele>19.8443603515625</ele>
        <time>2015-07-02T16:37:08Z</time>
      </trkpt>
      <trkpt lat="54.627112587913871" lon="17.453343020752072">
        <ele>18.40234375</ele>
        <time>2015-07-02T16:38:02Z</time>
      </trkpt>
      <trkpt lat="54.627507878467441" lon="17.454591086134315">
        <ele>21.7669677734375</ele>
        <time>2015-07-02T16:38:33Z</time>
      </trkpt>
      <trkpt lat="54.628342045471072" lon="17.457252508029342">
        <ele>26.5736083984375</ele>
        <time>2015-07-02T16:39:45Z</time>
      </trkpt>
      <trkpt lat="54.628603728488088" lon="17.45810704305768">
        <ele>28.9769287109375</ele>
        <time>2015-07-02T16:40:08Z</time>
      </trkpt>
      <trkpt lat="54.628932382911444" lon="17.459177831187844">
        <ele>31.8607177734375</ele>
        <time>2015-07-02T16:40:38Z</time>
      </trkpt>
      <trkpt lat="54.629776608198881" lon="17.462503267452121">
        <ele>32.822265625</ele>
        <time>2015-07-02T16:42:04Z</time>
      </trkpt>
      <trkpt lat="54.629839304834604" lon="17.465064860880375">
        <ele>33.783447265625</ele>
        <time>2015-07-02T16:42:52Z</time>
      </trkpt>
    </trkseg>
  </trk>

</gpx>
